Time;durP1;ratioP1;P1;durP2;ratioP2;P2;SDS_P1;SDS_P2;PMS_P1;PMS_P2;Temp;Humidity;BMP_temperature;BMP_pressure;BME280_temperature;BME280_humidity;BME280_pressure;Samples;Min_cycle;Max_cycle;Signal;HPM_P1;HPM_P2
2023/08/04 00:00:58;;;;;;;7.95;2.28;;;16.30;99.90;;;;;;5075127;28;20083;-66
2023/08/04 00:03:24;;;;;;;7.70;2.08;;;16.30;99.90;;;;;;5065537;28;20067;-57
2023/08/04 00:05:50;;;;;;;5.25;1.80;;;16.30;99.90;;;;;;5060671;28;20055;-63
2023/08/04 00:08:15;;;;;;;6.35;2.13;;;16.30;99.90;;;;;;5069522;28;20048;-57
2023/08/04 00:10:41;;;;;;;7.70;2.15;;;16.20;99.90;;;;;;5073132;28;20061;-61
2023/08/04 00:13:07;;;;;;;7.40;1.77;;;16.20;99.90;;;;;;5067294;28;20702;-60
2023/08/04 00:15:33;;;;;;;5.32;1.55;;;16.20;99.90;;;;;;5058032;28;20064;-57
2023/08/04 00:17:58;;;;;;;7.22;1.70;;;16.20;99.90;;;;;;5073436;28;20157;-57
2023/08/04 00:20:24;;;;;;;9.02;3.15;;;16.20;99.90;;;;;;5067743;28;20537;-57
2023/08/04 00:22:50;;;;;;;5.50;2.17;;;16.20;99.90;;;;;;5077757;28;20067;-56
2023/08/04 00:25:15;;;;;;;3.85;1.63;;;16.10;99.90;;;;;;5076996;28;20056;-57
2023/08/04 00:27:41;;;;;;;4.28;1.73;;;16.20;99.90;;;;;;5070561;28;20106;-57
2023/08/04 00:30:09;;;;;;;8.55;2.80;;;16.20;99.90;;;;;;5074139;28;20063;-61
2023/08/04 00:32:34;;;;;;;3.90;1.50;;;16.20;99.90;;;;;;5065065;28;20056;-60
2023/08/04 00:35:03;;;;;;;4.30;1.90;;;16.20;99.90;;;;;;5046841;28;20061;-61
2023/08/04 00:37:28;;;;;;;6.68;2.22;;;16.20;99.90;;;;;;5068804;28;20102;-57
2023/08/04 00:39:54;;;;;;;3.85;1.45;;;16.20;99.90;;;;;;5062572;28;20413;-57
2023/08/04 00:42:20;;;;;;;6.78;1.75;;;16.20;99.90;;;;;;5070316;28;20493;-58
2023/08/04 00:44:49;;;;;;;4.90;1.45;;;16.20;99.90;;;;;;5080171;28;20082;-57
2023/08/04 00:47:15;;;;;;;3.95;1.60;;;16.20;99.90;;;;;;5073894;28;20958;-57
2023/08/04 00:49:41;;;;;;;2.92;1.52;;;16.20;99.90;;;;;;5068330;28;20060;-58
2023/08/04 00:52:08;;;;;;;3.85;1.65;;;16.20;99.90;;;;;;5062693;28;20178;-57
2023/08/04 00:54:35;;;;;;;3.53;1.88;;;16.20;99.90;;;;;;5084173;28;20458;-57
2023/08/04 00:57:02;;;;;;;5.07;1.73;;;16.10;99.90;;;;;;5092663;28;20064;-57
2023/08/04 00:59:27;;;;;;;6.45;2.35;;;16.10;99.90;;;;;;5080988;28;20052;-57
2023/08/04 01:01:53;;;;;;;13.60;2.40;;;16.10;99.90;;;;;;5073371;28;20870;-57
2023/08/04 01:04:20;;;;;;;5.50;1.50;;;16.10;99.90;;;;;;5077616;28;20060;-57
2023/08/04 01:07:07;;;;;;;3.13;1.50;;;16.10;99.90;;;;;;5080959;28;20132;-57
2023/08/04 01:09:47;;;;;;;3.20;1.73;;;16.10;99.90;;;;;;5046145;28;1106441;-58
2023/08/04 01:12:34;;;;;;;3.15;1.90;;;16.00;99.90;;;;;;5061790;28;20063;-57
2023/08/04 01:15:02;;;;;;;5.32;1.60;;;15.90;99.90;;;;;;5081519;28;20788;-57
2023/08/04 01:17:30;;;;;;;5.22;1.48;;;15.80;99.90;;;;;;5074236;28;20075;-57
2023/08/04 01:19:56;;;;;;;3.58;1.55;;;15.80;99.90;;;;;;5088877;28;20105;-57
2023/08/04 01:22:23;;;;;;;4.30;1.67;;;15.70;99.90;;;;;;5081149;28;21088;-57
2023/08/04 01:24:50;;;;;;;3.42;1.35;;;15.70;99.90;;;;;;5074554;28;20040;-56
2023/08/04 01:27:21;;;;;;;3.60;1.88;;;15.60;99.90;;;;;;5072664;28;20138;-57
2023/08/04 01:29:47;;;;;;;4.40;1.55;;;15.60;99.90;;;;;;5079623;28;20852;-57
2023/08/04 01:32:13;;;;;;;3.00;1.45;;;15.50;99.90;;;;;;5093606;28;20135;-58
2023/08/04 01:34:41;;;;;;;4.80;1.45;;;15.50;99.90;;;;;;5075165;28;20139;-58
2023/08/04 01:37:08;;;;;;;4.15;1.63;;;15.50;99.90;;;;;;5084046;28;20044;-58
2023/08/04 01:39:35;;;;;;;5.72;1.50;;;15.50;99.90;;;;;;5080990;28;20131;-57
2023/08/04 01:42:00;;;;;;;7.13;1.50;;;15.40;99.90;;;;;;5077561;28;20060;-57
2023/08/04 01:44:26;;;;;;;3.80;1.60;;;15.40;99.90;;;;;;5085049;28;20048;-58
2023/08/04 01:46:52;;;;;;;2.20;1.27;;;15.40;99.90;;;;;;5079152;28;20093;-57
2023/08/04 01:49:17;;;;;;;3.35;1.48;;;15.40;99.90;;;;;;5071316;28;20488;-57
2023/08/04 01:51:43;;;;;;;3.90;1.48;;;15.40;99.90;;;;;;5084493;28;20059;-58
2023/08/04 01:54:09;;;;;;;4.47;1.38;;;15.50;99.90;;;;;;5073452;28;20049;-57
2023/08/04 01:56:34;;;;;;;4.00;1.50;;;15.50;99.90;;;;;;5062833;28;20086;-57
2023/08/04 01:59:00;;;;;;;3.55;1.58;;;15.50;99.90;;;;;;5079672;28;20687;-57
2023/08/04 02:01:26;;;;;;;1.77;1.10;;;15.50;99.90;;;;;;5059878;28;20107;-57
2023/08/04 02:03:51;;;;;;;3.58;1.27;;;15.50;99.90;;;;;;5081380;27;20163;-56
2023/08/04 02:06:17;;;;;;;2.40;1.23;;;15.40;99.90;;;;;;5075890;28;20072;-57
2023/08/04 02:08:43;;;;;;;2.70;1.30;;;15.50;99.90;;;;;;5077055;28;20494;-57
2023/08/04 02:11:08;;;;;;;5.45;1.55;;;15.40;99.90;;;;;;5085445;28;20165;-57
2023/08/04 02:13:34;;;;;;;3.92;1.33;;;15.50;99.90;;;;;;5079489;28;20082;-57
2023/08/04 02:16:00;;;;;;;4.80;2.28;;;15.50;99.90;;;;;;5071995;28;20060;-57
2023/08/04 02:18:26;;;;;;;14.98;2.13;;;15.40;99.90;;;;;;5079054;28;20052;-57
2023/08/04 02:20:51;;;;;;;5.10;1.40;;;15.40;99.90;;;;;;5080058;28;20044;-57
2023/08/04 02:23:17;;;;;;;6.88;1.58;;;15.40;99.90;;;;;;5080926;28;20064;-57
2023/08/04 02:25:43;;;;;;;4.63;1.95;;;15.40;99.90;;;;;;5079295;28;20063;-57
2023/08/04 02:28:08;;;;;;;3.28;1.63;;;15.40;99.90;;;;;;5078794;28;21902;-57
2023/08/04 02:30:34;;;;;;;3.92;1.40;;;15.40;99.90;;;;;;5078653;28;20522;-57
2023/08/04 02:33:00;;;;;;;4.57;1.40;;;15.30;99.90;;;;;;5079526;28;20055;-57
2023/08/04 02:35:25;;;;;;;8.40;2.78;;;15.30;99.90;;;;;;5061522;28;20398;-57
2023/08/04 02:37:51;;;;;;;6.80;1.85;;;15.40;99.90;;;;;;5077280;28;20052;-56
2023/08/04 02:40:17;;;;;;;7.05;1.98;;;15.30;99.90;;;;;;5079648;28;20510;-57
2023/08/04 02:42:42;;;;;;;6.65;1.50;;;15.30;99.90;;;;;;5068066;28;20146;-57
2023/08/04 02:45:09;;;;;;;4.97;1.60;;;15.30;99.90;;;;;;5078188;28;20066;-57
2023/08/04 02:47:36;;;;;;;4.97;1.75;;;15.30;99.90;;;;;;5072659;28;20741;-57
2023/08/04 02:50:04;;;;;;;3.92;2.00;;;15.40;99.90;;;;;;5072961;28;20056;-56
2023/08/04 02:52:30;;;;;;;7.00;1.60;;;15.40;99.90;;;;;;5081611;28;20054;-63
2023/08/04 02:54:55;;;;;;;4.28;2.10;;;15.40;99.90;;;;;;5081512;28;20052;-57
2023/08/04 02:57:21;;;;;;;7.35;2.95;;;15.40;99.90;;;;;;5047456;28;20050;-63
2023/08/04 02:59:48;;;;;;;5.80;2.40;;;15.40;99.90;;;;;;5082441;28;20467;-61
2023/08/04 03:02:14;;;;;;;8.20;2.50;;;15.40;99.90;;;;;;5063108;28;20060;-62
2023/08/04 03:04:39;;;;;;;7.40;3.03;;;15.40;99.90;;;;;;5057974;28;20063;-61
2023/08/04 03:07:05;;;;;;;5.53;2.95;;;15.40;99.90;;;;;;5081599;28;20061;-59
2023/08/04 03:09:31;;;;;;;12.18;4.60;;;15.40;99.90;;;;;;5084848;28;20055;-59
2023/08/04 03:11:57;;;;;;;12.60;4.07;;;15.40;99.90;;;;;;5067346;28;20052;-59
2023/08/04 03:14:23;;;;;;;10.30;4.20;;;15.40;99.90;;;;;;5079223;28;20089;-64
2023/08/04 03:16:50;;;;;;;5.50;3.35;;;15.40;99.90;;;;;;5069151;28;20067;-62
2023/08/04 03:19:17;;;;;;;7.15;3.13;;;15.30;99.90;;;;;;5075484;28;20056;-61
2023/08/04 03:24:09;;;;;;;4.03;1.65;;;15.30;99.90;;;;;;5070900;28;20101;-59
2023/08/04 03:26:35;;;;;;;3.92;1.42;;;15.30;99.90;;;;;;5072862;28;20056;-64
2023/08/04 03:29:00;;;;;;;3.47;2.15;;;15.30;99.90;;;;;;5067702;28;20489;-62
2023/08/04 03:31:26;;;;;;;2.08;1.45;;;15.30;99.90;;;;;;5072032;28;20059;-62
2023/08/04 03:33:52;;;;;;;3.78;1.33;;;15.20;99.90;;;;;;5076569;28;20481;-58
2023/08/04 03:36:18;;;;;;;6.07;1.45;;;15.20;99.90;;;;;;5076708;28;20101;-61
2023/08/04 03:38:47;;;;;;;3.75;1.42;;;15.20;99.90;;;;;;5082023;28;20512;-61
2023/08/04 03:41:13;;;;;;;3.17;1.35;;;15.20;99.90;;;;;;5078426;28;20406;-59
2023/08/04 03:43:39;;;;;;;4.35;1.48;;;15.20;99.90;;;;;;5069114;28;20060;-61
2023/08/04 03:46:04;;;;;;;1.63;0.98;;;15.20;99.90;;;;;;5077562;28;20592;-67
2023/08/04 03:48:30;;;;;;;1.70;0.93;;;15.10;99.90;;;;;;5084808;28;20062;-66
2023/08/04 03:50:56;;;;;;;7.25;1.45;;;15.10;99.90;;;;;;5077208;28;20079;-64
2023/08/04 03:53:21;;;;;;;3.72;1.20;;;15.10;99.90;;;;;;5061034;27;20042;-65
2023/08/04 03:55:47;;;;;;;3.42;1.13;;;15.00;99.90;;;;;;5079859;27;20407;-58
2023/08/04 03:58:13;;;;;;;2.30;0.93;;;15.00;99.90;;;;;;5077270;28;21700;-61
2023/08/04 04:00:38;;;;;;;3.80;1.00;;;15.00;99.90;;;;;;5082717;28;20059;-59
2023/08/04 04:03:05;;;;;;;3.83;1.13;;;15.00;99.90;;;;;;5065261;28;20524;-63
2023/08/04 04:05:30;;;;;;;2.25;1.10;;;15.00;99.90;;;;;;5079902;28;20413;-61
2023/08/04 04:07:56;;;;;;;4.25;1.60;;;14.90;99.90;;;;;;5070198;28;20113;-59
2023/08/04 04:10:22;;;;;;;3.78;1.40;;;14.90;99.90;;;;;;5072844;28;20062;-61
2023/08/04 04:12:47;;;;;;;4.50;1.70;;;14.90;99.90;;;;;;5079283;28;20402;-57
2023/08/04 04:15:13;;;;;;;3.33;1.38;;;14.90;99.90;;;;;;5057876;27;20055;-58
2023/08/04 04:17:39;;;;;;;2.85;1.40;;;14.90;99.90;;;;;;5080266;28;20139;-59
2023/08/04 04:20:05;;;;;;;4.20;1.30;;;14.90;99.90;;;;;;5035899;28;20063;-57
2023/08/04 04:22:33;;;;;;;3.15;1.13;;;14.90;99.90;;;;;;5077994;28;20447;-57
2023/08/04 04:25:00;;;;;;;2.47;1.17;;;15.00;99.90;;;;;;5067342;28;20185;-57
2023/08/04 04:27:26;;;;;;;4.15;1.33;;;15.00;99.90;;;;;;5065081;28;20059;-56
2023/08/04 04:29:51;;;;;;;2.47;1.42;;;15.00;99.90;;;;;;5062799;28;20052;-56
2023/08/04 04:32:17;;;;;;;4.93;1.80;;;15.00;99.90;;;;;;5054768;28;20055;-58
2023/08/04 04:34:43;;;;;;;5.00;2.28;;;15.10;99.90;;;;;;5060077;28;20052;-58
2023/08/04 04:37:08;;;;;;;4.07;1.80;;;15.10;99.90;;;;;;5076819;28;20052;-57
2023/08/04 04:39:34;;;;;;;2.72;1.70;;;15.20;99.90;;;;;;5072208;28;20515;-58
2023/08/04 04:42:00;;;;;;;5.28;1.55;;;15.20;99.90;;;;;;5072913;28;20147;-58
2023/08/04 04:44:26;;;;;;;3.25;1.35;;;15.10;99.90;;;;;;5073658;28;20075;-57
2023/08/04 04:46:51;;;;;;;1.50;1.33;;;15.10;99.90;;;;;;5080494;28;20051;-57
2023/08/04 04:49:17;;;;;;;3.40;1.00;;;15.10;99.90;;;;;;5065643;28;20055;-57
2023/08/04 04:51:43;;;;;;;1.85;1.42;;;15.10;99.90;;;;;;5052414;28;20052;-57
2023/08/04 04:54:09;;;;;;;1.38;1.10;;;15.10;99.90;;;;;;5065246;28;20056;-58
2023/08/04 04:56:35;;;;;;;2.55;1.40;;;15.10;99.90;;;;;;5066800;28;20405;-57
2023/08/04 04:59:01;;;;;;;3.03;1.42;;;15.10;99.90;;;;;;5061860;28;20087;-57
2023/08/04 05:01:26;;;;;;;2.15;1.30;;;15.10;99.90;;;;;;5079233;28;20159;-57
2023/08/04 05:03:52;;;;;;;3.42;1.38;;;15.20;99.90;;;;;;5072911;28;20505;-57
2023/08/04 05:06:18;;;;;;;2.55;1.30;;;15.20;99.90;;;;;;5070134;28;20052;-57
2023/08/04 05:08:43;;;;;;;2.13;1.13;;;15.30;99.90;;;;;;5069592;28;20056;-58
2023/08/04 05:11:13;;;;;;;1.65;1.08;;;15.30;99.90;;;;;;5055581;28;20098;-58
2023/08/04 05:13:41;;;;;;;1.60;1.10;;;15.40;99.90;;;;;;5081653;28;20401;-57
2023/08/04 05:16:07;;;;;;;3.75;1.10;;;15.50;99.90;;;;;;5065784;28;20784;-58
2023/08/04 05:18:33;;;;;;;2.67;1.20;;;15.50;99.90;;;;;;5076459;28;20084;-58
2023/08/04 05:20:59;;;;;;;3.45;1.48;;;15.60;99.90;;;;;;5046045;28;20494;-58
2023/08/04 05:23:24;;;;;;;1.50;1.30;;;15.60;99.90;;;;;;5078196;28;20063;-58
2023/08/04 05:25:50;;;;;;;1.88;1.52;;;15.60;99.90;;;;;;5036111;28;1098424;-57
2023/08/04 05:28:21;;;;;;;1.95;1.20;;;15.70;99.90;;;;;;5057972;28;20498;-58
2023/08/04 05:30:48;;;;;;;2.28;1.30;;;15.80;99.90;;;;;;5078840;28;20044;-56
2023/08/04 05:33:14;;;;;;;3.17;1.65;;;15.90;99.90;;;;;;5080582;28;20068;-57
2023/08/04 05:35:47;;;;;;;3.08;1.45;;;16.00;99.90;;;;;;5073427;28;20062;-58
2023/08/04 05:38:13;;;;;;;2.08;1.40;;;16.20;99.90;;;;;;5080904;28;20063;-58
2023/08/04 05:40:42;;;;;;;2.28;1.17;;;16.10;99.90;;;;;;5064258;28;20406;-58
2023/08/04 05:43:08;;;;;;;3.97;1.63;;;16.20;99.90;;;;;;5075135;28;20490;-58
2023/08/04 05:45:37;;;;;;;4.35;0.93;;;16.40;99.90;;;;;;5081115;28;20108;-58
2023/08/04 05:48:04;;;;;;;2.40;1.48;;;16.40;99.90;;;;;;5068514;28;20052;-58
2023/08/04 05:50:30;;;;;;;2.65;1.02;;;16.50;99.90;;;;;;5072690;28;20083;-58
2023/08/04 05:52:56;;;;;;;1.48;1.38;;;16.60;99.90;;;;;;5076843;28;20088;-57
2023/08/04 05:55:22;;;;;;;2.35;1.00;;;16.60;99.90;;;;;;5087817;28;20059;-57
2023/08/04 05:57:50;;;;;;;2.17;1.10;;;16.70;99.90;;;;;;5067361;28;20060;-57
2023/08/04 06:00:16;;;;;;;2.45;1.00;;;16.70;99.90;;;;;;5078767;27;20067;-58
2023/08/04 06:02:44;;;;;;;1.65;0.95;;;16.80;99.90;;;;;;5088892;28;20052;-57
2023/08/04 06:05:10;;;;;;;1.75;0.93;;;16.90;99.90;;;;;;5065424;27;20075;-57
2023/08/04 06:07:35;;;;;;;2.13;1.33;;;16.90;99.90;;;;;;5072670;28;20056;-57
2023/08/04 06:10:01;;;;;;;2.55;1.02;;;16.90;99.90;;;;;;5074752;28;20074;-57
2023/08/04 06:12:27;;;;;;;2.47;1.20;;;17.00;99.90;;;;;;5082126;28;20582;-57
2023/08/04 06:14:53;;;;;;;2.58;1.55;;;17.00;99.90;;;;;;5076433;28;20397;-57
2023/08/04 06:17:18;;;;;;;3.75;1.35;;;16.90;99.90;;;;;;5047904;28;20602;-57
2023/08/04 06:19:48;;;;;;;2.35;1.13;;;17.00;99.90;;;;;;5076432;28;20117;-57
2023/08/04 06:22:15;;;;;;;1.65;0.70;;;17.00;99.90;;;;;;5095740;27;20067;-57
2023/08/04 06:24:41;;;;;;;5.10;1.35;;;17.00;99.90;;;;;;5083032;28;20084;-57
2023/08/04 06:27:07;;;;;;;2.33;1.38;;;17.10;99.90;;;;;;5080571;28;20120;-57
2023/08/04 06:29:34;;;;;;;1.23;1.10;;;17.20;99.90;;;;;;5073554;28;20056;-57
2023/08/04 06:32:00;;;;;;;2.83;1.55;;;17.40;99.90;;;;;;5087106;28;20085;-57
2023/08/04 06:34:26;;;;;;;2.28;1.30;;;17.30;99.90;;;;;;5078149;28;20056;-57
2023/08/04 06:36:51;;;;;;;0.93;0.70;;;17.30;99.90;;;;;;5086168;28;20390;-63
2023/08/04 06:39:18;;;;;;;3.88;1.50;;;17.40;99.90;;;;;;5083532;28;20498;-63
2023/08/04 06:44:09;;;;;;;1.38;1.05;;;17.50;99.90;;;;;;5073601;28;20060;-59
2023/08/04 06:46:35;;;;;;;1.40;1.17;;;17.60;99.90;;;;;;5074423;28;20096;-58
2023/08/04 06:49:01;;;;;;;2.15;1.13;;;17.80;99.90;;;;;;5071443;28;20568;-61
2023/08/04 06:51:26;;;;;;;3.25;1.35;;;17.80;99.90;;;;;;5083161;28;20537;-57
2023/08/04 06:53:52;;;;;;;1.90;0.90;;;18.00;99.90;;;;;;5072383;28;20062;-57
2023/08/04 06:56:18;;;;;;;2.17;1.25;;;18.00;99.90;;;;;;5079120;28;20113;-60
2023/08/04 06:58:48;;;;;;;2.13;1.52;;;18.20;99.90;;;;;;5076298;28;20966;-58
2023/08/04 07:01:14;;;;;;;0.95;0.80;;;18.30;99.90;;;;;;5067610;28;20059;-58
2023/08/04 07:03:40;;;;;;;3.17;1.13;;;18.30;99.90;;;;;;5078845;28;20063;-65
2023/08/04 07:06:06;;;;;;;2.92;1.20;;;18.20;99.90;;;;;;5071697;28;20067;-60
2023/08/04 07:08:31;;;;;;;3.10;1.00;;;18.40;99.90;;;;;;5069322;28;20052;-63
2023/08/04 07:10:57;;;;;;;3.03;1.20;;;18.60;99.90;;;;;;5067030;28;20114;-67
2023/08/04 07:13:23;;;;;;;3.00;0.90;;;18.60;99.90;;;;;;5075923;28;20469;-59
2023/08/04 07:15:58;;;;;;;2.13;0.85;;;18.70;99.90;;;;;;5071816;28;20061;-59
2023/08/04 07:18:24;;;;;;;6.22;1.15;;;18.60;99.90;;;;;;5084278;28;20074;-66
2023/08/04 07:20:49;;;;;;;3.42;1.50;;;18.80;99.90;;;;;;5075618;28;20171;-67
2023/08/04 07:23:15;;;;;;;4.78;1.30;;;18.80;99.90;;;;;;5098731;28;20138;-64
2023/08/04 07:25:41;;;;;;;1.58;1.27;;;18.70;99.90;;;;;;5080459;28;20052;-66
2023/08/04 07:28:06;;;;;;;2.92;1.83;;;19.00;99.90;;;;;;5081589;28;20088;-68
2023/08/04 07:30:32;;;;;;;1.20;1.10;;;19.10;99.90;;;;;;5071392;28;20060;-65
2023/08/04 07:32:58;;;;;;;2.95;1.38;;;19.20;99.90;;;;;;5078796;28;20553;-64
2023/08/04 07:35:27;;;;;;;4.60;1.10;;;19.20;99.90;;;;;;5073500;28;20192;-57
2023/08/04 07:37:52;;;;;;;2.65;1.33;;;19.10;99.90;;;;;;5064713;28;20789;-59
2023/08/04 07:40:18;;;;;;;1.92;1.10;;;19.20;99.90;;;;;;5066859;28;20041;-58
2023/08/04 07:42:47;;;;;;;2.45;1.10;;;19.40;99.90;;;;;;5077564;28;20547;-57
2023/08/04 07:45:13;;;;;;;3.35;1.40;;;19.60;99.90;;;;;;5076712;28;20126;-57
2023/08/04 07:47:39;;;;;;;5.03;2.00;;;19.70;99.90;;;;;;5070319;28;20413;-58
2023/08/04 07:50:06;;;;;;;5.07;1.40;;;19.70;99.90;;;;;;5083399;28;20078;-62
2023/08/04 07:52:31;;;;;;;6.47;1.75;;;19.40;99.90;;;;;;5059350;28;20566;-59
2023/08/04 07:54:57;;;;;;;4.88;2.00;;;19.40;99.90;;;;;;5067544;28;20432;-60
2023/08/04 07:57:23;;;;;;;1.73;1.02;;;19.20;99.90;;;;;;5068604;28;20178;-58
2023/08/04 07:59:50;;;;;;;3.38;1.88;;;19.20;99.90;;;;;;5056275;28;20059;-63
2023/08/04 08:02:16;;;;;;;6.82;2.33;;;19.30;99.90;;;;;;5086555;28;20691;-67
2023/08/04 08:04:41;;;;;;;3.58;2.20;;;19.20;99.90;;;;;;5081185;27;20816;-67
2023/08/04 08:07:07;;;;;;;4.10;1.52;;;19.40;99.90;;;;;;5076597;28;21354;-64
2023/08/04 08:09:33;;;;;;;3.35;1.65;;;19.30;99.90;;;;;;5081504;28;20602;-66
2023/08/04 08:11:59;;;;;;;5.68;2.10;;;19.30;99.90;;;;;;5074060;28;20067;-67
2023/08/04 08:14:25;;;;;;;4.80;1.48;;;19.30;99.90;;;;;;5068635;28;20060;-64
2023/08/04 08:16:50;;;;;;;4.35;1.60;;;19.20;99.90;;;;;;5082309;28;20051;-61
2023/08/04 08:19:16;;;;;;;2.47;1.50;;;19.20;99.90;;;;;;5069832;28;20409;-62
2023/08/04 08:21:43;;;;;;;4.05;1.30;;;19.00;99.90;;;;;;5071174;28;20460;-62
2023/08/04 08:24:09;;;;;;;2.50;1.15;;;18.80;99.90;;;;;;5071915;28;20150;-62
2023/08/04 08:26:35;;;;;;;1.15;0.80;;;18.80;99.90;;;;;;5075021;28;20040;-59
2023/08/04 08:29:02;;;;;;;4.10;1.10;;;18.50;99.90;;;;;;5066822;28;20173;-57
2023/08/04 08:31:28;;;;;;;5.57;1.10;;;18.50;99.90;;;;;;5072040;28;20052;-57
2023/08/04 08:33:53;;;;;;;1.05;0.75;;;17.90;99.90;;;;;;5068297;28;20097;-57
2023/08/04 08:36:19;;;;;;;1.88;0.98;;;17.70;99.90;;;;;;5051279;28;20109;-57
2023/08/04 08:38:48;;;;;;;1.73;0.70;;;17.60;99.90;;;;;;5030474;28;20048;-57
2023/08/04 08:41:14;;;;;;;3.20;0.88;;;17.40;99.90;;;;;;5067821;28;20062;-58
2023/08/04 08:43:40;;;;;;;1.25;0.95;;;17.30;99.90;;;;;;5084049;28;20052;-57
2023/08/04 08:46:07;;;;;;;7.38;2.85;;;17.40;99.90;;;;;;5074428;28;20064;-58
2023/08/04 08:48:37;;;;;;;1.38;0.52;;;17.40;99.90;;;;;;5074157;28;20501;-59
2023/08/04 08:51:10;;;;;;;2.75;1.23;;;17.40;99.90;;;;;;5075188;28;20134;-60
2023/08/04 08:53:38;;;;;;;3.60;1.52;;;17.30;99.90;;;;;;5078013;28;20046;-61
2023/08/04 08:56:04;;;;;;;3.70;1.45;;;17.60;99.90;;;;;;5074745;28;20109;-59
2023/08/04 08:58:33;;;;;;;1.67;0.88;;;17.70;99.90;;;;;;5049634;28;20125;-59
2023/08/04 09:01:00;;;;;;;1.58;0.80;;;17.90;99.90;;;;;;5088848;28;20066;-58
2023/08/04 09:03:27;;;;;;;1.05;0.80;;;18.50;99.90;;;;;;5063481;28;20198;-58
2023/08/04 09:05:53;;;;;;;4.45;0.80;;;18.80;99.90;;;;;;5071514;28;20059;-61
2023/08/04 09:08:19;;;;;;;2.50;1.05;;;19.50;99.90;;;;;;5072893;28;20048;-64
2023/08/04 09:10:48;;;;;;;2.83;0.70;;;20.50;99.90;;;;;;5080621;28;20052;-62
2023/08/04 09:13:14;;;;;;;6.32;2.03;;;20.60;99.90;;;;;;5072253;28;20055;-66
2023/08/04 09:15:48;;;;;;;3.03;1.00;;;20.20;99.90;;;;;;5081998;28;20055;-61
2023/08/04 09:18:33;;;;;;;;;;;20.10;99.90;;;;;;5071649;28;20056;-62
2023/08/04 09:21:00;;;;;;;;;;;19.80;99.90;;;;;;5082128;28;20063;-63
2023/08/04 09:23:28;;;;;;;3.17;1.10;;;20.20;99.90;;;;;;5081019;28;20015;-61
2023/08/04 09:25:54;;;;;;;2.72;1.40;;;20.30;99.90;;;;;;5083466;28;20068;-60
2023/08/04 09:28:20;;;;;;;3.80;1.15;;;20.40;99.90;;;;;;5067954;28;20586;-59
2023/08/04 09:30:49;;;;;;;4.10;1.85;;;20.70;99.90;;;;;;5078121;28;20610;-60
2023/08/04 09:33:23;;;;;;;2.50;1.02;;;20.80;99.90;;;;;;5077911;28;20075;-67
2023/08/04 09:35:48;;;;;;;4.00;0.95;;;20.80;99.90;;;;;;5066881;28;20126;-63
2023/08/04 09:38:14;;;;;;;2.30;0.80;;;21.50;99.90;;;;;;5080016;28;20052;-64
2023/08/04 09:40:40;;;;;;;4.10;1.00;;;21.90;99.90;;;;;;5079672;28;20052;-58
2023/08/04 09:43:06;;;;;;;1.73;0.88;;;21.60;99.90;;;;;;5075652;28;20058;-59
2023/08/04 09:45:33;;;;;;;2.85;1.25;;;21.70;99.90;;;;;;5040335;28;1134699;-58
2023/08/04 09:47:58;;;;;;;2.20;1.05;;;22.00;99.90;;;;;;5077935;28;20083;-58
2023/08/04 09:50:24;;;;;;;5.90;1.70;;;22.20;99.90;;;;;;5071441;28;20084;-58
2023/08/04 09:53:02;;;;;;;2.65;1.13;;;22.60;99.90;;;;;;5070031;28;20500;-57
2023/08/04 09:55:28;;;;;;;1.88;0.80;;;23.00;99.90;;;;;;5076680;28;20063;-58
2023/08/04 09:57:54;;;;;;;2.80;1.33;;;23.00;99.90;;;;;;5079129;28;20501;-59
2023/08/04 10:00:20;;;;;;;4.43;1.48;;;23.00;99.90;;;;;;5078571;28;20120;-59
2023/08/04 10:05:13;;;;;;;2.30;0.90;;;21.80;99.90;;;;;;5091353;28;20055;-58
2023/08/04 10:07:40;;;;;;;3.13;0.98;;;22.00;99.90;;;;;;5086405;28;20056;-58
2023/08/04 10:10:07;;;;;;;3.97;1.55;;;21.40;99.90;;;;;;5084506;28;20470;-59
2023/08/04 10:12:34;;;;;;;3.53;1.15;;;21.40;99.90;;;;;;5066945;28;20155;-59
2023/08/04 10:14:59;;;;;;;3.25;1.33;;;21.50;99.90;;;;;;5062236;28;20434;-58
2023/08/04 10:17:26;;;;;;;2.38;1.20;;;21.30;99.90;;;;;;5070622;27;20043;-58
2023/08/04 10:20:04;;;;;;;5.72;2.25;;;21.60;99.90;;;;;;5085673;27;20449;-57
2023/08/04 10:22:31;;;;;;;5.45;1.85;;;22.50;99.90;;;;;;5066558;28;20056;-58
2023/08/04 10:24:57;;;;;;;4.15;1.98;;;22.50;99.90;;;;;;5071596;28;20052;-57
2023/08/04 10:27:23;;;;;;;3.95;1.23;;;22.70;99.90;;;;;;5078842;28;20062;-58
2023/08/04 10:30:11;;;;;;;4.40;1.60;;;22.40;99.90;;;;;;5085775;27;20533;-56
2023/08/04 10:32:41;;;;;;;4.95;2.13;;;23.30;99.90;;;;;;5057253;28;20410;-58
2023/08/04 10:35:18;;;;;;;9.05;3.00;;;23.20;99.90;;;;;;5067772;28;20060;-58
2023/08/04 10:40:10;;;;;;;2.17;1.25;;;22.80;99.90;;;;;;5076785;28;20455;-57
2023/08/04 10:42:48;;;;;;;4.88;1.25;;;22.80;99.90;;;;;;5071502;28;20060;-58
2023/08/04 10:45:13;;;;;;;1.88;1.00;;;23.00;99.90;;;;;;5085195;28;20049;-58
2023/08/04 10:47:48;;;;;;;4.70;1.00;;;22.50;99.90;;;;;;5069917;28;20549;-58
2023/08/04 10:50:14;;;;;;;2.90;1.00;;;22.10;99.90;;;;;;5097366;27;20068;-58
2023/08/04 10:52:41;;;;;;;5.53;1.13;;;21.70;99.90;;;;;;5086478;28;20502;-58
2023/08/04 10:55:12;;;;;;;2.65;0.90;;;22.10;99.90;;;;;;5077571;28;20105;-61
2023/08/04 10:57:39;;;;;;;4.15;0.90;;;22.20;99.90;;;;;;5075272;28;20079;-57
2023/08/04 11:00:10;;;;;;;5.80;0.93;;;22.40;99.90;;;;;;5073654;28;20063;-59
2023/08/04 11:02:37;;;;;;;2.90;1.00;;;22.10;99.90;;;;;;5083920;28;20056;-62
2023/08/04 11:05:06;;;;;;;3.30;1.00;;;22.30;99.90;;;;;;5063686;28;20798;-57
2023/08/04 11:07:34;;;;;;;5.25;1.08;;;22.20;99.90;;;;;;5079989;28;20170;-58
2023/08/04 11:10:04;;;;;;;2.10;1.33;;;22.90;99.90;;;;;;5070009;28;20693;-65
2023/08/04 11:12:40;;;;;;;4.50;1.83;;;22.40;99.90;;;;;;5079990;28;20059;-63
2023/08/04 11:15:10;;;;;;;4.00;0.98;;;22.20;99.90;;;;;;5074233;27;20548;-66
2023/08/04 11:17:38;;;;;;;1.92;0.50;;;21.60;99.90;;;;;;5084054;28;20138;-61
2023/08/04 11:20:10;;;;;;;1.08;0.90;;;22.60;99.90;;;;;;5076369;28;20056;-58
2023/08/04 11:22:37;;;;;;;3.65;1.17;;;23.40;99.90;;;;;;5070982;28;20052;-59
2023/08/04 11:25:06;;;;;;;2.92;1.10;;;23.00;99.90;;;;;;5055598;28;20059;-58
2023/08/04 11:27:31;;;;;;;3.70;0.70;;;23.30;99.90;;;;;;5084871;28;20670;-59
2023/08/04 11:29:57;;;;;;;1.60;0.82;;;23.40;99.90;;;;;;5073997;28;20078;-58
2023/08/04 11:32:24;;;;;;;3.83;0.70;;;26.00;99.90;;;;;;5075551;28;20505;-58
2023/08/04 11:34:54;;;;;;;2.80;0.93;;;27.70;99.90;;;;;;5067451;28;20049;-58
2023/08/04 11:37:21;;;;;;;1.83;0.70;;;27.20;99.90;;;;;;5071352;28;20143;-58
2023/08/04 11:39:49;;;;;;;5.63;0.60;;;28.50;99.90;;;;;;5076145;28;20087;-58
2023/08/04 11:42:15;;;;;;;2.05;1.17;;;27.70;99.90;;;;;;5075127;28;20090;-59
2023/08/04 11:44:48;;;;;;;0.65;0.52;;;26.00;99.90;;;;;;5068233;28;20139;-58
2023/08/04 11:47:15;;;;;;;3.00;0.70;;;25.80;99.90;;;;;;5056355;28;20049;-58
2023/08/04 11:49:41;;;;;;;1.92;0.43;;;25.20;99.90;;;;;;5061972;28;20061;-58
2023/08/04 11:52:14;;;;;;;0.70;0.57;;;24.90;99.90;;;;;;5058767;28;20075;-58
2023/08/04 11:54:48;;;;;;;1.60;0.98;;;25.50;99.90;;;;;;5081537;28;20138;-58
2023/08/04 11:57:17;;;;;;;3.45;0.77;;;27.50;99.90;;;;;;5080947;28;20056;-58
2023/08/04 11:59:48;;;;;;;3.40;1.05;;;26.10;99.90;;;;;;5079191;28;20055;-59
2023/08/04 12:02:13;;;;;;;2.88;0.95;;;26.60;99.90;;;;;;5056996;28;20107;-57
2023/08/04 12:04:39;;;;;;;4.25;1.13;;;29.10;99.90;;;;;;5069573;28;20518;-58
2023/08/04 12:07:06;;;;;;;2.92;1.00;;;27.10;99.90;;;;;;5041551;28;20064;-59
2023/08/04 12:09:32;;;;;;;2.53;1.00;;;25.60;99.90;;;;;;5064800;28;20138;-58
2023/08/04 12:11:59;;;;;;;2.30;0.95;;;24.20;99.90;;;;;;5066422;28;20091;-59
2023/08/04 12:14:25;;;;;;;2.90;1.10;;;23.90;99.90;;;;;;5063358;28;20051;-59
2023/08/04 12:17:01;;;;;;;3.15;1.27;;;23.10;99.90;;;;;;5072326;28;20056;-59
2023/08/04 12:19:32;;;;;;;3.53;1.58;;;22.90;99.90;;;;;;5082743;28;20055;-58
2023/08/04 12:22:00;;;;;;;4.10;1.10;;;22.60;99.90;;;;;;5070764;28;20064;-58
2023/08/04 12:24:28;;;;;;;2.67;1.10;;;22.90;99.90;;;;;;5078859;28;20051;-58
2023/08/04 12:26:56;;;;;;;3.13;1.10;;;22.90;99.90;;;;;;5082261;28;20083;-58
2023/08/04 12:29:22;;;;;;;3.78;1.05;;;22.70;99.90;;;;;;5079441;28;20059;-59
2023/08/04 12:31:50;;;;;;;2.80;0.98;;;23.50;99.90;;;;;;5077564;28;20075;-58
2023/08/04 12:34:15;;;;;;;2.88;1.25;;;24.80;99.90;;;;;;5053792;28;20124;-58
2023/08/04 12:36:41;;;;;;;2.22;0.80;;;24.40;99.90;;;;;;5080359;28;20498;-58
2023/08/04 12:39:12;;;;;;;6.20;1.30;;;24.40;99.90;;;;;;5062559;28;20557;-57
2023/08/04 12:41:38;;;;;;;2.38;1.33;;;23.30;99.90;;;;;;5068073;28;20056;-58
2023/08/04 12:44:04;;;;;;;3.83;1.10;;;22.80;99.90;;;;;;5059982;28;20060;-57
2023/08/04 12:46:30;;;;;;;2.17;1.08;;;22.80;99.90;;;;;;5066718;28;20154;-58
2023/08/04 12:48:58;;;;;;;1.23;0.55;;;22.20;99.90;;;;;;5080815;28;20068;-57
2023/08/04 12:51:24;;;;;;;5.22;1.83;;;22.10;99.90;;;;;;5063351;28;20063;-58
2023/08/04 12:53:50;;;;;;;3.22;1.05;;;21.70;99.90;;;;;;5066249;28;20151;-58
2023/08/04 12:56:16;;;;;;;3.78;1.10;;;21.80;99.90;;;;;;5081246;28;20057;-58